• Join FlightAware (Why Join?)
  • Login
  • US Flag 
05:29AM EDT


 

Airport Tracker/Info


-or-


 

Live Flight TrackerFlight Track Log ✈ CPZ5734 ✈ 26-Sep-2013 ✈ KSLC - KMCI

Flight Track Log - Related Links

Times and Time Zones

All times are in EDT time to prevent confusion due to time zone crossing. See the CPZ5734 flight status page for this flight to view local times or setup timezone preferences in your user account.

Time Position Orientation Groundspeed Altitude Reporting Facility
EDT Latitude Longitude Course Direction KTS MPH feet Rate Location/Type
10:11PM 40.8153 -111.9792 99° East 163 188 5,500  Level Salt Lake Center
10:12PM 40.8664 -111.9875 353° North 209 241 6,700 1,680 Climbing Salt Lake Center
10:13PM 40.9053 -111.9906 357° North 233 268 8,100 2,460 Climbing Salt Lake Center
10:13PM 40.9347 -111.9953 353° North 249 287 9,200 2,820 Climbing Salt Lake Center
10:14PM 40.9144 -111.5010 101° East  Level FlightAware Approximate
10:14PM 40.9778 -111.9992 356° North 257 296 11,000  Level Salt Lake Center
10:15PM 40.8986 -111.3389 99° East  Level FlightAware Approximate
10:15PM 41.0214 -111.9253 52° Northeast 289 333 13,300  Level Salt Lake Center
10:16PM 40.8785 -111.1771 99° East  Level FlightAware Approximate
10:16PM 40.9936 -111.8281 111° Southeast 303 349 14,900  Level Salt Lake Center
10:17PM 40.9647 -111.7019 107° East 314 361 17,800 2,040 Climbing Salt Lake Center
10:18PM 40.9667 -111.5717 89° East 357 411 19,100 1,860 Climbing Salt Lake Center
10:19PM 40.9686 -111.4344 89° East 375 432 21,700 1,860 Climbing Salt Lake Center
10:20PM 40.9717 -111.2978 88° East 374 430 23,000 1,140 Climbing Salt Lake Center
10:21PM 40.9731 -111.1517 89° East 394 453 24,100 1,200 Climbing Salt Lake Center
10:22PM 40.9742 -110.9972 89° East 415 478 25,500 1,140 Climbing Salt Lake Center
10:23PM 40.9744 -110.8369 90° East 430 495 26,500 960 Climbing Salt Lake Center
10:24PM 40.9767 -110.6331 89° East 457 526 27,500 1,020 Climbing Salt Lake Center
10:25PM 40.9806 -110.4544 88° East 472 543 28,600 960 Climbing Salt Lake Center
10:26PM 40.9811 -110.2861 90° East 477 549 29,500 1,020 Climbing Salt Lake Center
10:27PM 40.9817 -110.1144 90° East 485 558 30,700 1,260 Climbing Salt Lake Center
10:28PM 40.9819 -109.9181 90° East 480 552 32,100 1,020 Climbing Salt Lake Center
10:29PM 40.9825 -109.7522 90° East 474 545 32,900 660 Climbing Salt Lake Center
10:30PM 40.9822 -109.5544 90° East 483 556 33,500 480 Climbing Salt Lake Center
10:31PM 40.9822 -109.3831 90° East 489 563 34,000 480 Climbing Salt Lake Center
10:33PM 40.9819 -109.0647 90° East 497 572 34,900 360 Climbing Denver Center
10:34PM 40.9806 -108.8908 91° East 498 573 35,000  Climbing Denver Center
10:35PM 40.9783 -108.6806 91° East 512 589 35,000  Level Denver Center
10:36PM 40.9764 -108.4967 91° East 523 602 35,000  Level Denver Center
10:37PM 40.9739 -108.2814 91° East 527 606 35,000  Level Denver Center
10:38PM 40.9725 -108.0975 91° East 525 604 35,000  Level Denver Center
10:39PM 40.9697 -107.8833 91° East 525 604 35,000  Level Denver Center
10:40PM 40.9672 -107.7003 91° East 522 601 35,000  Level Denver Center
10:41PM 40.9631 -107.5178 92° East 521 600 35,000  Level Denver Center
10:42PM 40.9583 -107.3019 92° East 526 605 35,000  Level Denver Center
10:43PM 40.9553 -107.1175 91° East 526 605 35,000  Level Denver Center
10:44PM 40.9508 -106.9031 92° East 525 604 35,000  Level Denver Center
10:45PM 40.9467 -106.7183 92° East 525 604 35,000  Level Denver Center
10:46PM 40.9411 -106.5003 92° East 532 612 35,000  Level Denver Center
10:47PM 40.9342 -106.3125 93° East 536 617 35,000  Level Denver Center
10:48PM 40.9297 -106.1217 92° East 538 619 35,000  Level Denver Center
10:49PM 40.9231 -105.9236 92° East 539 620 35,000  Level Denver Center
10:50PM 40.9178 -105.7283 92° East 535 616 35,000  Level Denver Center
10:51PM 40.9100 -105.4933 92° East 533 613 35,000  Level Denver Center
10:52PM 40.9022 -105.2994 93° East 531 611 35,000  Level Denver Center
10:53PM 40.8950 -105.1056 93° East 528 608 35,000  Level Denver Center
10:54PM 40.8869 -104.9114 93° East 528 608 35,000  Level Denver Center
10:55PM 40.8783 -104.7217 93° East 520 598 35,000  Level Denver Center
10:56PM 40.8706 -104.5317 93° East 517 595 35,000  Level Denver Center
10:58PM 40.8620 -104.3325 93° East  Level FlightAware Approximate
10:58PM 40.8533 -104.1497 93° East 520 598 35,000  Level Denver Center
10:59PM 40.8436 -103.9583 94° East 523 602 35,000  Level Denver Center
11:00PM 40.8333 -103.7672 94° East 522 601 35,000  Level Denver Center
11:01PM 40.8242 -103.5747 94° East 524 603 35,000  Level Denver Center
11:02PM 40.8117 -103.3456 94° East 523 602 35,000  Level Denver Center
11:03PM 40.8008 -103.1556 94° East 521 600 35,000  Level Denver Center
11:04PM 40.7900 -102.9533 94° East 526 605 35,000  Level Denver Center
11:05PM 40.7783 -102.7722 95° East 520 598 35,000  Level Denver Center
11:07PM 40.7675 -102.5897 94° East 522 601 35,000  Level Denver Center
11:08PM 40.7539 -102.3772 95° East 522 601 35,000  Level Denver Center
11:09PM 40.7428 -102.1964 95° East 519 597 35,000  Level Denver Center
11:10PM 40.7328 -102.0439 95° East 522 601 35,000  Level Denver Center
11:11PM 40.7169 -101.7986 95° East 526 605 35,000  Level Denver Center
11:12PM 40.7042 -101.6153 95° East 525 604 35,000  Level Denver Center
11:13PM 40.6867 -101.3714 95° East 526 605 35,000  Level Denver Center
11:14PM 40.6736 -101.1908 95° East 522 601 35,000  Level Denver Center
11:15PM 40.6575 -100.9811 96° East 520 598 35,000  Level Denver Center
11:16PM 40.6444 -100.8017 95° East 522 601 35,000  Level Denver Center
11:17PM 40.6289 -100.5947 96° East 519 597 35,000  Level Denver Center
11:18PM 40.6156 -100.4161 96° East 517 595 35,000  Level Denver Center
11:19PM 40.5986 -100.2100 96° East 513 590 35,000  Level Denver Center
11:20PM 40.5842 -100.0319 96° East 513 590 35,000  Level Denver Center
11:21PM 40.5681 -99.8533 97° East 521 600 35,000  Level Denver Center
11:22PM 40.5522 -99.6661 96° East 518 596 35,000  Level Denver Center
11:23PM 40.5322 -99.4417 97° East 518 596 35,000  Level Denver Center
11:24PM 40.5164 -99.2553 96° East 516 594 35,000  Level Denver Center
11:25PM 40.4994 -99.0692 97° East 516 594 35,000  Level Denver Center
11:26PM 40.4814 -98.8819 97° East 520 598 35,000  Level Denver Center
11:27PM 40.4647 -98.6969 97° East 514 592 35,000  Level Denver Center
11:28PM 40.4467 -98.5100 97° East 519 597 35,000  Level Denver Center
11:30PM 40.4164 -98.2103 97° East 522 601 35,000  Level Minneapolis Center
11:31PM 40.3975 -98.0225 97° East 522 601 35,000  Level Minneapolis Center
11:32PM 40.3794 -97.8350 97° East 520 598 35,000 -180 Level Minneapolis Center
11:33PM 40.3589 -97.6478 98° East 520 598 34,700 -660 Descending Minneapolis Center
11:34PM 40.3397 -97.4600 98° East 520 598 33,700 -960 Descending Minneapolis Center
11:35PM 40.3203 -97.2861 98° East 520 598 32,800 -1,080 Descending Minneapolis Center
11:36PM 40.2964 -97.0622 98° East 520 598 31,600 -1,140 Descending Minneapolis Center
11:37PM 40.2758 -96.8781 98° East 517 595 30,600 -1,020 Descending Minneapolis Center
11:38PM 40.2553 -96.6939 98° East 514 592 29,600 -1,500 Descending Minneapolis Center
11:39PM 40.2350 -96.5125 98° East 509 586 27,600 -2,280 Descending Minneapolis Center
11:40PM 40.2158 -96.3375 98° East 496 571 25,000 -2,460 Descending Minneapolis Center
11:41PM 40.1875 -96.1781 103° East 466 536 22,600 -2,220 Descending Minneapolis Center
11:42PM 40.1300 -96.0450 119° Southeast 430 495 20,600 -1,920 Descending Minneapolis Center
11:43PM 40.0781 -95.9317 121° Southeast 421 484 19,000 -1,980 Descending Kansas City Center
11:44PM 40.0164 -95.7886 119° Southeast 408 470 16,900 -1,860 Descending Kansas City Center
11:45PM 39.9656 -95.6747 120° Southeast 393 452 15,300 -1,620 Descending Kansas City Center
11:46PM 39.9136 -95.5614 121° Southeast 382 440 13,700 -1,680 Descending Kansas City Center
11:47PM 39.8519 -95.4303 121° Southeast 379 436 12,000 -960 Descending Kansas City Center
11:48PM 39.7997 -95.3217 122° Southeast 370 426 11,800 -840 Descending Kansas City Center
11:49PM 39.7550 -95.2289 122° Southeast 322 371 10,400 -1,740 Descending Kansas City Center
11:50PM 39.7089 -95.1261 120° Southeast 296 341 8,300 -1,920 Descending Kansas City Center
11:51PM 39.6639 -95.0517 128° Southeast 275 316 6,600 -1,140 Descending Kansas City Center
11:52PM 39.6214 -94.9800 128° Southeast 262 302 6,000 -960 Descending Kansas City Center
11:53PM 39.5786 -94.9097 128° Southeast 259 298 4,700 -1,020 Descending Kansas City Center
11:54PM 39.5308 -94.8278 127° Southeast 254 292 4,000 -900 Descending Kansas City Center
11:55PM 39.4922 -94.7636 128° Southeast 237 273 2,900 -720 Descending Kansas City Center
11:56PM 39.4494 -94.7231 144° Southeast 200 230 2,600 -60 Descending Kansas City Center
11:57PM 39.4050 -94.6828 145° Southeast 174 200 2,800 -240 Climbing Kansas City Center
11:58PM 39.3692 -94.6836 181° South 135 155 2,200 -600 Descending Kansas City Center
11:59PM 39.3369 -94.6925 192° South 125 144 1,600 -600 Descending Kansas City Center
12:00AM 39.2953 -94.7050 193° South 134 154 1,000 -600 Descending Kansas City Center